Time;durP1;ratioP1;P1;durP2;ratioP2;P2;SDS_P1;SDS_P2;PMS_P1;PMS_P2;Temp;Humidity;BMP_temperature;BMP_pressure;BME280_temperature;BME280_humidity;BME280_pressure;Samples;Min_cycle;Max_cycle;Signal;HPM_P1;HPM_P2
2021/05/11 00:01:50;;;;;;;0.40;0.40;;;;;;;;;;5089147;28;20277;-73
2021/05/11 00:04:17;;;;;;;0.43;0.43;;;;;;;;;;5092628;28;20214;-73
2021/05/11 00:06:44;;;;;;;0.47;0.40;;;;;;;;;;5096059;28;20236;-74
2021/05/11 00:09:13;;;;;;;0.30;0.30;;;;;;;;;;5083251;28;20248;-74
2021/05/11 00:11:40;;;;;;;0.63;0.47;;;;;;;;;;5096760;28;20202;-73
2021/05/11 00:14:07;;;;;;;0.50;0.50;;;;;;;;;;5097469;28;20621;-72
2021/05/11 00:16:34;;;;;;;0.70;0.40;;;;;;;;;;5096810;28;20292;-74
2021/05/11 00:19:04;;;;;;;0.40;0.40;;;;;;;;;;5097484;28;20212;-74
2021/05/11 00:21:31;;;;;;;0.20;0.20;;;;;;;;;;5081807;28;20233;-74
2021/05/11 00:23:58;;;;;;;1.47;0.50;;;;;;;;;;5096826;28;20630;-73
2021/05/11 00:26:26;;;;;;;1.50;0.30;;;;;;;;;;5100717;28;20724;-73
2021/05/11 00:28:53;;;;;;;1.20;0.50;;;;;;;;;;5092711;28;20313;-74
2021/05/11 00:31:20;;;;;;;0.50;0.50;;;;;;;;;;5093492;28;20289;-74
2021/05/11 00:33:47;;;;;;;0.20;0.20;;;;;;;;;;5091070;28;20209;-74
2021/05/11 00:36:14;;;;;;;0.73;0.40;;;;;;;;;;5098350;28;20347;-74
2021/05/11 00:38:41;;;;;;;0.30;0.30;;;;;;;;;;5088362;28;20288;-74
2021/05/11 00:41:08;;;;;;;0.63;0.40;;;;;;;;;;5097982;28;20233;-74
2021/05/11 00:43:41;;;;;;;1.20;0.30;;;;;;;;;;5101855;28;20240;-74
2021/05/11 00:46:08;;;;;;;1.10;0.67;;;;;;;;;;5095862;28;20573;-74
2021/05/11 00:48:36;;;;;;;1.60;0.60;;;;;;;;;;5087878;28;20241;-74
2021/05/11 00:51:04;;;;;;;0.70;0.50;;;;;;;;;;5099514;28;20559;-74
2021/05/11 00:53:31;;;;;;;0.60;0.60;;;;;;;;;;5101175;28;20291;-74
2021/05/11 00:55:58;;;;;;;0.40;0.40;;;;;;;;;;5100220;28;20304;-73
2021/05/11 00:58:25;;;;;;;0.40;0.40;;;;;;;;;;5100014;28;20301;-73
2021/05/11 01:00:53;;;;;;;0.30;0.30;;;;;;;;;;5098768;28;20237;-73
2021/05/11 01:03:20;;;;;;;0.67;0.40;;;;;;;;;;5083349;28;20249;-74
2021/05/11 01:05:47;;;;;;;0.50;0.50;;;;;;;;;;5096477;28;20224;-72
2021/05/11 01:08:14;;;;;;;0.40;0.40;;;;;;;;;;5088470;28;20296;-73
2021/05/11 01:10:41;;;;;;;0.47;0.40;;;;;;;;;;5087905;28;20837;-73
2021/05/11 01:13:08;;;;;;;0.40;0.40;;;;;;;;;;5086453;28;20232;-73
2021/05/11 01:15:38;;;;;;;0.40;0.40;;;;;;;;;;5100309;28;20256;-73
2021/05/11 01:18:09;;;;;;;0.77;0.63;;;;;;;;;;5100407;28;20653;-74
2021/05/11 01:20:39;;;;;;;0.43;0.43;;;;;;;;;;5093964;28;20226;-74
2021/05/11 01:26:04;;;;;;;0.73;0.73;;;;;;;;;;5079516;28;20240;-74
2021/05/11 01:28:39;;;;;;;0.43;0.43;;;;;;;;;;5097110;28;22187;-73
2021/05/11 01:45:46;;;;;;;0.60;0.60;;;;;;;;;;5079939;28;20289;-73
2021/05/11 01:48:20;;;;;;;0.50;0.50;;;;;;;;;;5090081;28;20676;-74
2021/05/11 01:50:55;;;;;;;0.50;0.47;;;;;;;;;;5091720;28;20221;-73
2021/05/11 02:10:29;;;;;;;2.87;1.60;;;;;;;;;;5111074;28;20571;-71
2021/05/11 02:23:58;;;;;;;2.60;2.40;;;;;;;;;;5114612;28;20204;-73
2021/05/11 02:26:25;;;;;;;2.10;2.00;;;;;;;;;;5115270;28;20248;-74
2021/05/11 02:28:52;;;;;;;2.23;2.03;;;;;;;;;;5114444;28;20207;-72
2021/05/11 02:31:20;;;;;;;3.70;2.50;;;;;;;;;;5114048;28;20276;-74
2021/05/11 02:33:47;;;;;;;2.73;2.10;;;;;;;;;;5114711;28;20556;-74
2021/05/11 02:36:14;;;;;;;2.83;2.50;;;;;;;;;;5108027;28;20269;-73
2021/05/11 02:38:41;;;;;;;2.50;2.23;;;;;;;;;;5113993;28;20252;-74
2021/05/11 02:41:08;;;;;;;2.10;1.90;;;;;;;;;;5114088;28;20288;-73
2021/05/11 02:43:37;;;;;;;3.37;2.93;;;;;;;;;;5114754;28;20292;-74
2021/05/11 02:46:04;;;;;;;4.07;2.60;;;;;;;;;;5109687;28;20308;-73
2021/05/11 02:48:32;;;;;;;3.10;2.60;;;;;;;;;;5114664;28;20671;-74
2021/05/11 02:50:59;;;;;;;2.63;1.83;;;;;;;;;;5100595;28;20288;-74
2021/05/11 02:53:26;;;;;;;3.07;1.93;;;;;;;;;;5094808;28;20233;-73
2021/05/11 02:55:53;;;;;;;1.87;1.70;;;;;;;;;;5114503;28;20659;-74
2021/05/11 02:58:22;;;;;;;1.87;1.77;;;;;;;;;;5113327;28;20232;-74
2021/05/11 03:00:49;;;;;;;2.47;1.67;;;;;;;;;;5114412;28;20712;-73
2021/05/11 03:03:16;;;;;;;1.77;1.67;;;;;;;;;;5095857;28;20280;-74
2021/05/11 03:05:44;;;;;;;2.67;1.77;;;;;;;;;;5112586;28;20231;-72
2021/05/11 03:08:13;;;;;;;1.70;1.60;;;;;;;;;;5099399;28;20280;-75
2021/05/11 03:10:40;;;;;;;2.30;1.80;;;;;;;;;;5099871;28;20223;-74
2021/05/11 03:13:08;;;;;;;1.70;1.60;;;;;;;;;;5100761;28;20268;-74
2021/05/11 03:15:34;;;;;;;1.90;1.73;;;;;;;;;;5100055;28;20217;-74
2021/05/11 03:18:01;;;;;;;1.23;1.13;;;;;;;;;;5100156;28;20257;-73
2021/05/11 03:20:29;;;;;;;1.40;1.10;;;;;;;;;;5097770;28;20251;-73
2021/05/11 03:22:57;;;;;;;1.20;1.10;;;;;;;;;;5099852;28;20251;-74
2021/05/11 03:25:24;;;;;;;1.73;0.90;;;;;;;;;;5086910;28;20309;-73
2021/05/11 03:27:51;;;;;;;0.83;0.83;;;;;;;;;;5100348;28;20692;-73
2021/05/11 03:30:18;;;;;;;0.93;0.80;;;;;;;;;;5087981;28;20229;-73
2021/05/11 03:32:45;;;;;;;0.60;0.60;;;;;;;;;;5086513;28;20249;-74
2021/05/11 03:35:13;;;;;;;1.43;0.80;;;;;;;;;;5099079;28;20260;-74
2021/05/11 03:37:40;;;;;;;0.70;0.70;;;;;;;;;;5085127;28;20249;-73
2021/05/11 03:40:09;;;;;;;1.63;1.00;;;;;;;;;;5100109;28;20209;-73
2021/05/11 03:42:39;;;;;;;0.90;0.90;;;;;;;;;;5100205;28;20205;-74
2021/05/11 03:45:08;;;;;;;1.03;0.90;;;;;;;;;;5087104;28;20264;-73
2021/05/11 03:47:44;;;;;;;1.27;1.17;;;;;;;;;;5099882;28;20233;-74
2021/05/11 03:50:13;;;;;;;1.03;0.93;;;;;;;;;;5083243;28;20204;-73
2021/05/11 03:52:41;;;;;;;0.80;0.80;;;;;;;;;;5083856;28;20198;-73
2021/05/11 03:55:10;;;;;;;0.80;0.80;;;;;;;;;;5096379;28;20252;-74
2021/05/11 03:57:38;;;;;;;0.60;0.60;;;;;;;;;;5099885;28;20297;-74
2021/05/11 04:00:06;;;;;;;1.07;0.87;;;;;;;;;;5098157;28;20229;-73
2021/05/11 04:02:34;;;;;;;0.83;0.83;;;;;;;;;;5097553;28;20255;-74
2021/05/11 04:05:06;;;;;;;0.77;0.77;;;;;;;;;;5095463;28;20226;-74
2021/05/11 04:07:34;;;;;;;1.00;0.90;;;;;;;;;;5085628;28;20285;-74
2021/05/11 04:10:04;;;;;;;1.27;0.60;;;;;;;;;;5099015;28;20285;-74
2021/05/11 04:12:54;;;;;;;0.87;0.70;;;;;;;;;;5099611;28;20238;-73
2021/05/11 04:18:04;;;;;;;0.97;0.90;;;;;;;;;;5059044;28;20315;-73
2021/05/11 04:20:31;;;;;;;2.60;1.03;;;;;;;;;;5091761;28;20699;-74
2021/05/11 04:22:59;;;;;;;1.10;1.00;;;;;;;;;;5093150;28;20293;-74
2021/05/11 04:25:26;;;;;;;1.20;1.07;;;;;;;;;;5086153;28;20260;-74
2021/05/11 04:27:55;;;;;;;1.73;1.10;;;;;;;;;;5099402;28;20658;-74
2021/05/11 04:30:23;;;;;;;1.13;1.13;;;;;;;;;;5094618;28;20221;-74
2021/05/11 04:32:50;;;;;;;2.03;0.97;;;;;;;;;;5097082;28;20269;-73
2021/05/11 04:35:18;;;;;;;1.23;1.13;;;;;;;;;;5099367;28;20304;-74
2021/05/11 04:37:45;;;;;;;0.93;0.93;;;;;;;;;;5097684;28;20236;-74
2021/05/11 04:40:13;;;;;;;1.00;0.90;;;;;;;;;;5095576;28;20231;-74
2021/05/11 04:42:44;;;;;;;1.10;1.00;;;;;;;;;;5098277;28;20198;-73
2021/05/11 04:45:16;;;;;;;1.83;1.20;;;;;;;;;;5099169;28;20304;-73
2021/05/11 04:47:47;;;;;;;1.50;1.37;;;;;;;;;;5089810;28;20226;-72
2021/05/11 04:50:15;;;;;;;1.20;1.10;;;;;;;;;;5093801;28;20281;-72
2021/05/11 04:52:43;;;;;;;1.30;1.20;;;;;;;;;;5082465;28;20230;-72
2021/05/11 04:55:13;;;;;;;1.43;1.33;;;;;;;;;;5095010;28;20261;-71
2021/05/11 04:57:40;;;;;;;1.53;1.33;;;;;;;;;;5097294;28;20233;-72
2021/05/11 05:00:09;;;;;;;1.30;1.20;;;;;;;;;;5099679;28;20294;-72
2021/05/11 05:02:40;;;;;;;1.87;1.03;;;;;;;;;;5090593;28;20230;-73
2021/05/11 05:05:09;;;;;;;1.30;0.80;;;;;;;;;;5095923;28;20239;-70
2021/05/11 05:07:36;;;;;;;1.07;0.97;;;;;;;;;;5096933;28;20240;-70
2021/05/11 05:10:04;;;;;;;0.67;0.67;;;;;;;;;;5097351;28;20265;-69
2021/05/11 05:12:31;;;;;;;1.37;1.13;;;;;;;;;;5097890;28;20197;-72
2021/05/11 05:14:59;;;;;;;2.00;0.70;;;;;;;;;;5092271;28;20657;-70
2021/05/11 05:17:27;;;;;;;3.50;0.93;;;;;;;;;;5097385;28;20284;-71
2021/05/11 05:19:55;;;;;;;1.30;1.00;;;;;;;;;;5098488;28;20202;-70
2021/05/11 05:22:23;;;;;;;0.80;0.80;;;;;;;;;;5089561;28;20693;-69
2021/05/11 05:24:52;;;;;;;0.83;0.80;;;;;;;;;;5097473;28;20221;-69
2021/05/11 05:27:23;;;;;;;0.70;0.70;;;;;;;;;;5098055;28;20229;-70
2021/05/11 05:29:51;;;;;;;0.93;0.80;;;;;;;;;;5103401;28;20225;-69
2021/05/11 05:32:18;;;;;;;0.80;0.77;;;;;;;;;;5102449;28;20228;-69
2021/05/11 05:34:46;;;;;;;0.90;0.90;;;;;;;;;;5107719;28;20293;-70
2021/05/11 05:37:15;;;;;;;0.90;0.63;;;;;;;;;;5086607;28;20208;-70
2021/05/11 05:39:44;;;;;;;0.67;0.60;;;;;;;;;;5084239;28;20268;-70
2021/05/11 05:42:12;;;;;;;0.40;0.40;;;;;;;;;;5086163;28;20226;-70
2021/05/11 05:44:39;;;;;;;0.90;0.90;;;;;;;;;;5084319;28;20677;-68
2021/05/11 05:47:07;;;;;;;0.70;0.70;;;;;;;;;;5087915;28;20300;-68
2021/05/11 05:49:40;;;;;;;0.60;0.60;;;;;;;;;;5086662;28;20301;-67
2021/05/11 05:52:14;;;;;;;0.50;0.50;;;;;;;;;;5086184;28;20193;-68
2021/05/11 05:54:44;;;;;;;0.70;0.50;;;;;;;;;;5091877;28;20220;-70
2021/05/11 05:57:11;;;;;;;0.40;0.40;;;;;;;;;;5102932;28;20237;-68
2021/05/11 05:59:40;;;;;;;0.40;0.40;;;;;;;;;;5104612;28;20276;-70
2021/05/11 06:02:08;;;;;;;0.60;0.60;;;;;;;;;;5104154;28;20235;-68
2021/05/11 06:04:35;;;;;;;0.40;0.40;;;;;;;;;;5106329;28;20213;-69
2021/05/11 06:07:03;;;;;;;0.63;0.40;;;;;;;;;;5105271;28;20284;-70
2021/05/11 06:09:30;;;;;;;0.73;0.57;;;;;;;;;;5095663;28;20641;-71
2021/05/11 06:12:02;;;;;;;5.40;1.57;;;;;;;;;;5101888;28;20637;-69
2021/05/11 06:14:43;;;;;;;1.70;1.10;;;;;;;;;;5103073;28;20246;-68
2021/05/11 06:17:14;;;;;;;1.07;0.80;;;;;;;;;;5104305;28;20236;-69
2021/05/11 06:19:42;;;;;;;1.60;0.77;;;;;;;;;;5105741;28;20213;-69
2021/05/11 06:22:10;;;;;;;0.60;0.60;;;;;;;;;;5102360;28;20205;-70
2021/05/11 06:24:38;;;;;;;0.60;0.60;;;;;;;;;;5102934;28;20222;-70
2021/05/11 06:27:07;;;;;;;1.70;0.87;;;;;;;;;;5102007;28;20740;-70
2021/05/11 06:29:36;;;;;;;0.90;0.90;;;;;;;;;;5096771;28;20647;-70
2021/05/11 06:32:04;;;;;;;1.23;0.80;;;;;;;;;;5083247;28;20230;-70
2021/05/11 06:34:32;;;;;;;0.80;0.80;;;;;;;;;;5097415;28;20228;-70
2021/05/11 06:36:59;;;;;;;0.80;0.80;;;;;;;;;;5081986;28;20261;-70
2021/05/11 06:39:27;;;;;;;0.80;0.80;;;;;;;;;;5086164;28;20312;-69
2021/05/11 06:41:56;;;;;;;7.73;1.67;;;;;;;;;;5094925;28;20281;-69
2021/05/11 06:44:33;;;;;;;10.77;2.40;;;;;;;;;;5087875;28;20218;-69
2021/05/11 06:47:24;;;;;;;11.13;2.70;;;;;;;;;;5099960;28;20201;-69
2021/05/11 06:52:54;;;;;;;3.20;2.67;;;;;;;;;;5080444;28;20220;-69
2021/05/11 06:55:21;;;;;;;1.90;1.80;;;;;;;;;;5100837;28;20225;-69
2021/05/11 06:57:49;;;;;;;2.50;2.30;;;;;;;;;;5099567;28;20267;-70
2021/05/11 07:00:20;;;;;;;2.20;2.00;;;;;;;;;;5095808;28;20205;-68
2021/05/11 07:02:47;;;;;;;2.60;2.40;;;;;;;;;;5093552;28;20244;-69
2021/05/11 07:05:15;;;;;;;2.27;2.13;;;;;;;;;;5090128;28;20218;-70
2021/05/11 07:07:44;;;;;;;2.70;2.50;;;;;;;;;;5087088;28;20205;-67
2021/05/11 07:10:34;;;;;;;2.17;2.07;;;;;;;;;;5087752;28;20206;-68
2021/05/11 07:13:10;;;;;;;2.57;2.37;;;;;;;;;;5083672;28;20201;-66
2021/05/11 07:15:41;;;;;;;2.23;2.13;;;;;;;;;;5087780;28;20581;-68
2021/05/11 07:18:09;;;;;;;2.00;1.90;;;;;;;;;;5081850;28;20251;-67
2021/05/11 07:20:37;;;;;;;1.80;1.70;;;;;;;;;;5095070;28;20280;-68
2021/05/11 07:23:05;;;;;;;1.63;1.53;;;;;;;;;;5102243;28;20207;-68
2021/05/11 07:25:37;;;;;;;7.30;3.30;;;;;;;;;;5109225;28;20217;-68
2021/05/11 07:31:06;;;;;;;12.73;3.20;;;;;;;;;;5107090;28;20201;-66
2021/05/11 07:33:37;;;;;;;1.13;1.10;;;;;;;;;;5107946;28;20225;-67
2021/05/11 07:36:05;;;;;;;12.53;3.53;;;;;;;;;;5107968;28;20213;-68
2021/05/11 07:38:33;;;;;;;1.57;1.10;;;;;;;;;;5105694;28;20300;-68
2021/05/11 07:41:01;;;;;;;1.43;1.20;;;;;;;;;;5102724;28;20265;-67
2021/05/11 07:43:30;;;;;;;1.10;1.00;;;;;;;;;;5097964;28;20251;-68
2021/05/11 08:06:27;;;;;;;0.67;0.67;;;;;;;;;;5096942;28;20221;-69
2021/05/11 08:14:45;;;;;;;1.47;0.70;;;;;;;;;;5074602;28;20260;-68
2021/05/11 08:17:15;;;;;;;1.93;1.13;;;;;;;;;;5090770;28;20233;-68
2021/05/11 08:19:52;;;;;;;1.13;0.93;;;;;;;;;;5100304;28;20689;-66
2021/05/11 08:22:45;;;;;;;0.90;0.67;;;;;;;;;;5080706;28;20285;-68
2021/05/11 08:27:59;;;;;;;1.80;1.20;;;;;;;;;;5098831;28;20209;-68
2021/05/11 08:30:27;;;;;;;0.60;0.60;;;;;;;;;;5096525;28;20655;-68
2021/05/11 08:32:55;;;;;;;0.60;0.60;;;;;;;;;;5096656;28;20215;-68
2021/05/11 08:35:22;;;;;;;7.13;4.77;;;;;;;;;;5098423;28;20218;-69
2021/05/11 08:37:51;;;;;;;11.70;1.47;;;;;;;;;;5086228;28;20202;-68
2021/05/11 08:40:19;;;;;;;7.33;1.30;;;;;;;;;;5082033;28;20780;-68
2021/05/11 08:42:46;;;;;;;0.80;0.70;;;;;;;;;;5086844;28;20293;-68
2021/05/11 08:45:15;;;;;;;0.40;0.40;;;;;;;;;;5097475;28;20216;-68
2021/05/11 08:47:49;;;;;;;1.43;0.40;;;;;;;;;;5108791;28;20204;-68
2021/05/11 08:50:18;;;;;;;0.80;0.80;;;;;;;;;;5097267;28;20204;-68
2021/05/11 08:52:59;;;;;;;0.47;0.47;;;;;;;;;;5080616;28;20240;-69
2021/05/11 08:59:54;;;;;;;0.40;0.40;;;;;;;;;;5097296;28;20253;-68
2021/05/11 09:07:14;;;;;;;0.50;0.50;;;;;;;;;;5107921;28;20634;-66
2021/05/11 09:24:00;;;;;;;0.73;0.33;;;;;;;;;;5138194;27;20196;-69
2021/05/11 09:26:36;;;;;;;0.87;0.50;;;;;;;;;;5143023;27;20238;-68
2021/05/11 09:29:10;;;;;;;3.30;0.50;;;;;;;;;;5138900;27;20564;-68
2021/05/11 09:31:52;;;;;;;1.60;0.40;;;;;;;;;;5139151;27;20751;-69
2021/05/11 09:34:26;;;;;;;0.40;0.40;;;;;;;;;;5142610;27;20210;-68
2021/05/11 09:45:50;;;;;;;0.50;0.50;;;;;;;;;;5132773;27;20227;-72
2021/05/11 09:54:24;;;;;;;1.70;0.40;;;;;;;;;;5135610;27;20295;-69
2021/05/11 09:56:57;;;;;;;1.17;0.60;;;;;;;;;;5133388;28;20264;-69
2021/05/11 10:36:51;;;;;;;0.77;0.63;;;;;;;;;;5119494;28;20311;-69
2021/05/11 10:39:45;;;;;;;2.77;0.70;;;;;;;;;;5108574;28;20224;-67
2021/05/11 10:42:39;;;;;;;2.60;1.00;;;;;;;;;;5119263;28;20246;-69
2021/05/11 10:48:15;;;;;;;0.87;0.87;;;;;;;;;;5109809;28;20292;-67
2021/05/11 10:50:44;;;;;;;1.57;1.10;;;;;;;;;;5109379;28;20625;-69
2021/05/11 10:53:33;;;;;;;0.97;0.90;;;;;;;;;;5108848;28;20370;-73
2021/05/11 10:56:16;;;;;;;1.87;0.93;;;;;;;;;;5120228;27;20784;-66
2021/05/11 10:59:02;;;;;;;0.80;0.80;;;;;;;;;;5124793;27;20649;-65
2021/05/11 11:01:33;;;;;;;0.70;0.70;;;;;;;;;;5126170;27;20196;-66
2021/05/11 11:04:07;;;;;;;1.90;0.80;;;;;;;;;;5126134;27;20228;-67
2021/05/11 11:06:50;;;;;;;0.60;0.60;;;;;;;;;;5122327;27;20205;-71
2021/05/11 11:09:19;;;;;;;0.77;0.60;;;;;;;;;;5124550;27;20532;-69
2021/05/11 11:11:47;;;;;;;0.70;0.70;;;;;;;;;;5124339;27;20325;-69
2021/05/11 11:14:15;;;;;;;1.30;0.70;;;;;;;;;;5118303;28;20268;-68
2021/05/11 11:16:43;;;;;;;2.20;0.90;;;;;;;;;;5119136;28;20285;-69
2021/05/11 11:19:11;;;;;;;2.43;0.80;;;;;;;;;;5117088;28;20234;-69
2021/05/11 11:21:49;;;;;;;1.60;0.90;;;;;;;;;;5123340;27;20189;-70
2021/05/11 11:24:25;;;;;;;1.47;1.10;;;;;;;;;;5123000;27;20250;-70
2021/05/11 11:26:54;;;;;;;1.37;0.97;;;;;;;;;;5120222;27;20229;-68
2021/05/11 11:29:21;;;;;;;3.23;1.43;;;;;;;;;;5114627;28;20201;-70
2021/05/11 11:31:49;;;;;;;1.30;0.87;;;;;;;;;;5116356;28;20276;-70
2021/05/11 11:34:18;;;;;;;1.13;0.70;;;;;;;;;;5114892;28;20201;-70
2021/05/11 11:36:47;;;;;;;0.73;0.50;;;;;;;;;;5110459;28;20209;-71
2021/05/11 11:39:18;;;;;;;0.87;0.50;;;;;;;;;;5117514;28;20698;-70
2021/05/11 11:41:47;;;;;;;1.07;0.67;;;;;;;;;;5112506;28;20289;-70
2021/05/11 11:44:15;;;;;;;0.90;0.70;;;;;;;;;;5118979;28;20640;-71
2021/05/11 11:46:43;;;;;;;0.67;0.67;;;;;;;;;;5118911;28;20590;-71
2021/05/11 11:49:16;;;;;;;0.70;0.70;;;;;;;;;;5118879;28;20212;-71
2021/05/11 11:51:43;;;;;;;1.07;0.80;;;;;;;;;;5118766;28;20311;-69
2021/05/11 11:54:21;;;;;;;2.10;1.00;;;;;;;;;;5118930;28;20225;-69
2021/05/11 11:59:56;;;;;;;0.70;0.60;;;;;;;;;;5090722;28;20284;-66
2021/05/11 12:02:23;;;;;;;0.40;0.40;;;;;;;;;;5116350;28;20250;-69
2021/05/11 12:04:51;;;;;;;1.60;0.57;;;;;;;;;;5118371;28;20224;-70
2021/05/11 12:07:19;;;;;;;1.37;0.80;;;;;;;;;;5114723;28;20197;-71
2021/05/11 12:09:48;;;;;;;1.93;0.87;;;;;;;;;;5114642;28;20687;-71
2021/05/11 12:12:17;;;;;;;2.00;0.73;;;;;;;;;;5118341;28;20232;-72
2021/05/11 12:14:44;;;;;;;0.77;0.73;;;;;;;;;;5117631;28;20339;-71
2021/05/11 12:17:12;;;;;;;1.30;0.70;;;;;;;;;;5117406;28;20289;-72
2021/05/11 12:19:44;;;;;;;0.60;0.60;;;;;;;;;;5117985;28;20205;-71
2021/05/11 12:22:15;;;;;;;0.40;0.40;;;;;;;;;;5118182;28;20378;-71
2021/05/11 12:24:44;;;;;;;1.03;0.60;;;;;;;;;;5107321;28;20216;-72
2021/05/11 12:27:12;;;;;;;0.63;0.60;;;;;;;;;;5118406;28;20205;-70
2021/05/11 12:29:54;;;;;;;0.40;0.40;;;;;;;;;;5119084;27;20672;-71
2021/05/11 12:32:23;;;;;;;0.60;0.53;;;;;;;;;;5115713;28;20304;-72
2021/05/11 12:35:02;;;;;;;1.67;0.90;;;;;;;;;;5122003;27;20220;-71
2021/05/11 12:37:43;;;;;;;1.60;0.70;;;;;;;;;;5113647;27;20232;-69
2021/05/11 12:40:22;;;;;;;9.50;0.83;;;;;;;;;;5116860;28;20291;-70
2021/05/11 12:42:49;;;;;;;1.20;0.53;;;;;;;;;;5117906;28;20251;-69
2021/05/11 12:45:17;;;;;;;4.13;0.63;;;;;;;;;;5111397;28;20217;-67
2021/05/11 12:47:47;;;;;;;2.03;0.60;;;;;;;;;;5116693;28;20204;-67
2021/05/11 12:50:15;;;;;;;1.97;0.80;;;;;;;;;;5117985;28;20232;-67
2021/05/11 12:52:44;;;;;;;1.73;0.70;;;;;;;;;;5116476;28;20258;-67
2021/05/11 12:55:19;;;;;;;2.77;0.63;;;;;;;;;;5118134;28;20311;-67
2021/05/11 12:57:56;;;;;;;3.23;0.70;;;;;;;;;;5117870;28;20231;-67
2021/05/11 13:00:36;;;;;;;0.93;0.70;;;;;;;;;;5118076;28;20640;-67
2021/05/11 13:03:17;;;;;;;1.27;0.50;;;;;;;;;;5117146;28;20637;-67
2021/05/11 13:16:56;;;;;;;0.50;0.50;;;;;;;;;;5118068;28;20690;-68
2021/05/11 13:25:23;;;;;;;1.03;0.53;;;;;;;;;;5110555;27;20229;-68
2021/05/11 13:28:00;;;;;;;0.30;0.30;;;;;;;;;;5117826;28;20291;-68
2021/05/11 13:30:35;;;;;;;0.40;0.40;;;;;;;;;;5117545;28;20271;-68
2021/05/11 13:33:18;;;;;;;0.40;0.40;;;;;;;;;;5117641;28;20227;-68
2021/05/11 13:35:46;;;;;;;1.23;0.60;;;;;;;;;;5115694;28;20299;-68
2021/05/11 13:38:14;;;;;;;2.10;0.30;;;;;;;;;;5117591;28;20197;-69
2021/05/11 13:40:41;;;;;;;0.37;0.37;;;;;;;;;;5115116;28;20260;-68
2021/05/11 13:43:09;;;;;;;2.00;0.40;;;;;;;;;;5117383;28;20201;-68
2021/05/11 13:45:36;;;;;;;0.73;0.50;;;;;;;;;;5115544;28;20304;-68
2021/05/11 13:48:06;;;;;;;0.47;0.33;;;;;;;;;;5117533;28;20231;-67
2021/05/11 13:53:22;;;;;;;0.27;0.27;;;;;;;;;;5110865;28;20260;-68
2021/05/11 13:55:59;;;;;;;1.00;0.63;;;;;;;;;;5116873;28;20697;-68
2021/05/11 14:01:38;;;;;;;1.43;0.40;;;;;;;;;;5119749;28;20224;-67
2021/05/11 14:04:07;;;;;;;0.70;0.60;;;;;;;;;;5120954;28;20620;-66
2021/05/11 14:06:34;;;;;;;1.50;0.60;;;;;;;;;;5121219;28;20667;-66
2021/05/11 14:09:03;;;;;;;0.50;0.50;;;;;;;;;;5120785;28;20285;-67
2021/05/11 14:11:32;;;;;;;0.60;0.60;;;;;;;;;;5120143;28;20297;-68
2021/05/11 14:13:59;;;;;;;0.57;0.50;;;;;;;;;;5120474;28;20271;-67
2021/05/11 14:16:27;;;;;;;0.63;0.37;;;;;;;;;;5120499;28;20205;-68
2021/05/11 14:18:55;;;;;;;0.50;0.50;;;;;;;;;;5119877;28;20231;-68
2021/05/11 14:21:23;;;;;;;1.50;0.70;;;;;;;;;;5120393;28;20284;-68
2021/05/11 14:23:52;;;;;;;0.97;0.60;;;;;;;;;;5120364;28;20219;-67
2021/05/11 14:26:21;;;;;;;0.50;0.50;;;;;;;;;;5120725;28;20254;-67
2021/05/11 14:28:48;;;;;;;0.40;0.40;;;;;;;;;;5120858;28;20201;-67
2021/05/11 14:31:16;;;;;;;0.40;0.40;;;;;;;;;;5120726;28;20273;-67
2021/05/11 14:33:44;;;;;;;0.83;0.53;;;;;;;;;;5120362;28;20277;-68
2021/05/11 14:36:12;;;;;;;0.73;0.40;;;;;;;;;;5120881;28;20255;-68
2021/05/11 14:38:39;;;;;;;0.60;0.40;;;;;;;;;;5120746;27;20236;-68
2021/05/11 14:41:08;;;;;;;1.63;0.70;;;;;;;;;;5120143;28;20776;-68
2021/05/11 14:43:38;;;;;;;0.47;0.40;;;;;;;;;;5120182;28;20664;-69
2021/05/11 14:46:06;;;;;;;2.07;0.80;;;;;;;;;;5118052;28;20220;-67
2021/05/11 14:48:35;;;;;;;0.60;0.40;;;;;;;;;;5119554;28;20313;-69
2021/05/11 14:51:04;;;;;;;0.30;0.30;;;;;;;;;;5120416;28;20208;-69
2021/05/11 14:53:31;;;;;;;0.27;0.27;;;;;;;;;;5120160;28;20315;-69
2021/05/11 14:55:59;;;;;;;0.53;0.40;;;;;;;;;;5120158;28;20311;-69
2021/05/11 14:58:31;;;;;;;0.43;0.43;;;;;;;;;;5119605;28;20212;-69
2021/05/11 15:01:00;;;;;;;0.40;0.40;;;;;;;;;;5119656;28;20214;-68
2021/05/11 15:03:28;;;;;;;0.83;0.53;;;;;;;;;;5119996;28;20205;-70
2021/05/11 15:06:15;;;;;;;1.17;1.07;;;;;;;;;;5119886;28;20229;-68
2021/05/11 15:08:43;;;;;;;0.53;0.40;;;;;;;;;;5120607;28;20257;-70
2021/05/11 15:11:11;;;;;;;0.50;0.50;;;;;;;;;;5119562;27;20236;-70
2021/05/11 15:13:39;;;;;;;1.40;0.30;;;;;;;;;;5119246;28;20573;-68
2021/05/11 15:16:11;;;;;;;0.40;0.40;;;;;;;;;;5123695;27;20217;-68
2021/05/11 15:18:39;;;;;;;0.73;0.40;;;;;;;;;;5123612;27;20956;-68
2021/05/11 15:21:07;;;;;;;0.30;0.30;;;;;;;;;;5125740;27;20225;-67
2021/05/11 15:23:35;;;;;;;0.37;0.30;;;;;;;;;;5129950;27;20201;-69
2021/05/11 15:26:03;;;;;;;0.20;0.20;;;;;;;;;;5127432;27;20217;-69
2021/05/11 15:28:30;;;;;;;0.60;0.40;;;;;;;;;;5127359;27;20205;-68
2021/05/11 15:30:58;;;;;;;0.23;0.23;;;;;;;;;;5124099;27;20200;-69
2021/05/11 15:33:26;;;;;;;0.60;0.40;;;;;;;;;;5119003;28;20216;-68
2021/05/11 15:35:54;;;;;;;0.33;0.33;;;;;;;;;;5119342;28;20213;-68
2021/05/11 15:38:21;;;;;;;0.47;0.47;;;;;;;;;;5119498;28;20201;-69
2021/05/11 15:40:49;;;;;;;0.40;0.40;;;;;;;;;;5116682;28;20280;-69
2021/05/11 15:43:16;;;;;;;1.30;0.33;;;;;;;;;;5118797;28;20196;-68
2021/05/11 15:45:44;;;;;;;0.47;0.47;;;;;;;;;;5117901;27;20897;-68
2021/05/11 15:48:12;;;;;;;0.60;0.60;;;;;;;;;;5117318;28;20243;-69
2021/05/11 15:50:41;;;;;;;0.30;0.30;;;;;;;;;;5118820;28;20687;-68
2021/05/11 15:53:09;;;;;;;1.90;0.50;;;;;;;;;;5118762;28;20267;-69
2021/05/11 15:55:38;;;;;;;2.20;0.40;;;;;;;;;;5119343;28;20225;-68
2021/05/11 15:58:06;;;;;;;0.43;0.43;;;;;;;;;;5119043;28;20236;-68
2021/05/11 16:00:34;;;;;;;0.40;0.40;;;;;;;;;;5118562;28;20210;-68
2021/05/11 16:03:03;;;;;;;1.63;0.80;;;;;;;;;;5118330;28;20238;-68
2021/05/11 16:05:34;;;;;;;0.50;0.50;;;;;;;;;;5118580;28;20710;-69
2021/05/11 16:08:03;;;;;;;0.40;0.40;;;;;;;;;;5117757;28;20201;-72
2021/05/11 16:10:30;;;;;;;0.63;0.30;;;;;;;;;;5118365;28;20252;-73
2021/05/11 16:12:58;;;;;;;0.47;0.47;;;;;;;;;;5118518;28;20307;-73
2021/05/11 16:15:26;;;;;;;1.20;0.43;;;;;;;;;;5124499;27;20220;-73
2021/05/11 16:17:54;;;;;;;0.77;0.40;;;;;;;;;;5129520;27;20663;-73
2021/05/11 16:20:21;;;;;;;0.60;0.43;;;;;;;;;;5127334;27;20197;-73
2021/05/11 16:22:49;;;;;;;1.20;0.50;;;;;;;;;;5126916;27;20200;-72
2021/05/11 16:25:18;;;;;;;2.40;0.60;;;;;;;;;;5125213;27;20241;-73
2021/05/11 16:27:46;;;;;;;1.23;0.47;;;;;;;;;;5118123;28;20204;-74
2021/05/11 16:30:14;;;;;;;1.13;0.60;;;;;;;;;;5115248;28;20275;-75
2021/05/11 16:32:42;;;;;;;2.03;0.50;;;;;;;;;;5117789;28;20253;-74
2021/05/11 16:35:09;;;;;;;1.53;0.70;;;;;;;;;;5118161;28;20255;-72
2021/05/11 16:37:37;;;;;;;1.63;0.63;;;;;;;;;;5118281;28;20205;-69
2021/05/11 16:40:06;;;;;;;0.33;0.33;;;;;;;;;;5118271;28;20646;-73
2021/05/11 16:42:35;;;;;;;0.77;0.40;;;;;;;;;;5118324;28;20212;-73
2021/05/11 16:45:03;;;;;;;0.90;0.60;;;;;;;;;;5115239;28;20229;-74
2021/05/11 16:47:31;;;;;;;0.67;0.53;;;;;;;;;;5117206;28;20634;-74
2021/05/11 16:49:58;;;;;;;1.73;0.40;;;;;;;;;;5118617;28;20268;-73
2021/05/11 16:52:26;;;;;;;0.57;0.37;;;;;;;;;;5117509;28;20224;-71
2021/05/11 16:54:53;;;;;;;2.10;0.57;;;;;;;;;;5115814;28;20262;-72
2021/05/11 16:57:21;;;;;;;2.40;0.60;;;;;;;;;;5116232;28;20279;-74
2021/05/11 16:59:49;;;;;;;1.23;0.43;;;;;;;;;;5118335;28;20240;-75
2021/05/11 17:02:19;;;;;;;0.93;0.47;;;;;;;;;;5114902;28;20201;-73
2021/05/11 17:04:46;;;;;;;2.23;0.90;;;;;;;;;;5117812;28;20654;-73
2021/05/11 17:07:17;;;;;;;0.83;0.83;;;;;;;;;;5118291;28;20205;-75
2021/05/11 17:09:45;;;;;;;2.27;0.60;;;;;;;;;;5110782;28;20212;-75
2021/05/11 17:12:12;;;;;;;1.10;1.10;;;;;;;;;;5111398;28;20294;-71
2021/05/11 17:14:40;;;;;;;2.30;0.80;;;;;;;;;;5113545;28;20227;-74
2021/05/11 17:17:12;;;;;;;1.17;0.70;;;;;;;;;;5118294;28;20211;-74
2021/05/11 17:19:39;;;;;;;1.17;0.70;;;;;;;;;;5118419;28;20209;-74
2021/05/11 17:22:07;;;;;;;1.10;1.00;;;;;;;;;;5118179;28;20712;-74
2021/05/11 17:24:35;;;;;;;2.33;0.97;;;;;;;;;;5118033;28;20703;-74
2021/05/11 17:27:03;;;;;;;2.37;1.00;;;;;;;;;;5118408;28;20212;-72
2021/05/11 17:29:30;;;;;;;2.87;1.40;;;;;;;;;;5115637;28;20236;-73
2021/05/11 17:31:58;;;;;;;5.93;0.90;;;;;;;;;;5118314;28;20643;-74
2021/05/11 17:34:26;;;;;;;1.53;1.33;;;;;;;;;;5122182;28;20256;-72
2021/05/11 17:36:54;;;;;;;1.97;1.10;;;;;;;;;;5122129;28;20564;-72
2021/05/11 17:39:23;;;;;;;2.03;0.93;;;;;;;;;;5122128;28;20240;-74
2021/05/11 17:41:50;;;;;;;2.60;1.23;;;;;;;;;;5122681;28;20262;-72
2021/05/11 17:44:18;;;;;;;0.87;0.87;;;;;;;;;;5121752;28;20656;-73
2021/05/11 17:46:51;;;;;;;1.57;1.03;;;;;;;;;;5120923;28;20201;-74
2021/05/11 17:49:20;;;;;;;1.90;0.90;;;;;;;;;;5122062;28;20217;-73
2021/05/11 17:51:48;;;;;;;0.67;0.67;;;;;;;;;;5121804;28;20287;-73
2021/05/11 17:54:16;;;;;;;1.00;0.70;;;;;;;;;;5121488;28;20235;-72
2021/05/11 17:56:43;;;;;;;1.70;0.60;;;;;;;;;;5121692;28;20205;-74
2021/05/11 17:59:11;;;;;;;1.30;0.60;;;;;;;;;;5121453;28;20299;-69
2021/05/11 18:01:38;;;;;;;0.73;0.73;;;;;;;;;;5121206;27;20203;-71
2021/05/11 18:04:06;;;;;;;1.37;0.60;;;;;;;;;;5118867;28;20229;-73
2021/05/11 18:06:34;;;;;;;3.57;0.67;;;;;;;;;;5113379;28;20201;-74